Terminal Aerodrome Forecast
Issued by NWS

Home | Current Version | Previous Version | Text Only | Print | Product List | Glossary On
Versions: 1 2 3 4 5 6 7 8 9 10 11 12 13 14 15 16 17 18 19 20
000
FTUS42 KMLB 070547
TAFSFB
TAF
KSFB 070547Z 0706/0806 21003KT P6SM BKN250
     FM071400 18004KT P6SM FEW030 SCT250
     FM072000 13008KT P6SM VCTS SCT040CB BKN060
      TEMPO 0721/0723 3SM TSRA BKN030CB
     FM080200 15004KT P6SM SCT050 SCT150 BKN250=

USA.gov is the U.S. government's official web portal to all federal, state and local government web resources and services.